createdAt,value
2018-01-15T00:01:57.325Z,26.63
2018-01-15T00:04:25.637Z,27.70
2018-01-15T00:06:54.706Z,26.30
2018-01-15T00:09:23.004Z,26.70
2018-01-15T00:11:51.351Z,24.63
2018-01-15T00:14:19.740Z,24.53
2018-01-15T00:16:48.080Z,26.90
2018-01-15T00:19:17.151Z,25.70
2018-01-15T00:21:45.459Z,25.00
2018-01-15T00:24:14.007Z,25.23
2018-01-15T00:26:42.341Z,25.10
2018-01-15T00:29:10.667Z,26.73
2018-01-15T00:31:38.981Z,24.97
2018-01-15T00:34:08.073Z,25.77
2018-01-15T00:36:36.395Z,23.90
2018-01-15T00:39:04.695Z,27.07
2018-01-15T00:41:33.005Z,27.43
2018-01-15T00:44:01.301Z,25.63
2018-01-15T00:46:30.487Z,25.60
2018-01-15T00:48:58.829Z,27.67
2018-01-15T00:51:27.155Z,25.30
2018-01-15T00:53:56.253Z,27.17
2018-01-15T00:56:24.565Z,24.40
2018-01-15T00:58:53.645Z,27.13
2018-01-15T01:01:21.976Z,24.90
2018-01-15T01:03:50.275Z,25.70
2018-01-15T01:06:18.597Z,24.50
2018-01-15T01:08:47.672Z,27.90
2018-01-15T01:11:15.971Z,25.70
2018-01-15T01:13:45.035Z,25.83
2018-01-15T01:16:13.365Z,26.47
2018-01-15T01:18:42.553Z,26.20
2018-01-15T01:21:10.839Z,25.97
2018-01-15T01:23:39.921Z,25.67
2018-01-15T01:26:08.227Z,26.00
2018-01-15T01:28:37.291Z,25.93
2018-01-15T01:31:05.671Z,23.50
2018-01-15T01:33:33.983Z,25.53
2018-01-15T01:36:03.867Z,25.93
2018-01-15T01:38:32.202Z,24.60
2018-01-15T01:41:00.507Z,23.47
2018-01-15T01:43:28.839Z,26.37
2018-01-15T01:45:57.240Z,25.90
2018-01-15T01:48:26.369Z,25.87
2018-01-15T01:50:54.692Z,27.80
2018-01-15T01:53:22.987Z,25.90
2018-01-15T01:55:51.325Z,27.60
2018-01-15T01:58:19.625Z,27.57
2018-01-15T02:00:47.922Z,25.73
2018-01-15T02:03:16.255Z,25.27
2018-01-15T02:05:44.564Z,29.20
2018-01-15T02:08:12.887Z,27.00
2018-01-15T02:10:41.954Z,27.87
2018-01-15T02:13:10.263Z,25.90
2018-01-15T02:15:39.353Z,30.90
2018-01-15T02:18:08.443Z,32.57
2018-01-15T02:20:36.769Z,30.70
2018-01-15T02:23:05.155Z,29.40
2018-01-15T02:25:33.487Z,32.73
2018-01-15T02:28:01.811Z,32.90
2018-01-15T02:30:30.125Z,33.57
2018-01-15T02:32:58.443Z,35.27
2018-01-15T02:35:27.535Z,34.00
2018-01-15T02:37:55.871Z,33.57
2018-01-15T02:40:24.184Z,31.80
2018-01-15T02:42:52.494Z,30.37
2018-01-15T02:45:20.799Z,31.80
2018-01-15T02:47:49.151Z,28.63
2018-01-15T02:50:18.227Z,26.33
2018-01-15T02:52:46.559Z,27.47
2018-01-15T02:55:14.862Z,24.73
2018-01-15T02:57:43.166Z,27.83
2018-01-15T03:00:11.478Z,24.37
2018-01-15T03:02:39.778Z,26.87
2018-01-15T03:05:08.844Z,25.63
2018-01-15T03:07:37.168Z,24.27
2018-01-15T03:10:05.499Z,27.30
2018-01-15T03:12:33.802Z,27.30
2018-01-15T03:15:02.114Z,26.00
2018-01-15T03:17:30.491Z,26.37
2018-01-15T03:19:58.806Z,28.17
2018-01-15T03:22:27.170Z,26.77
2018-01-15T03:24:55.488Z,28.80
2018-01-15T03:27:23.830Z,25.53
2018-01-15T03:29:52.160Z,28.20
2018-01-15T03:32:20.483Z,28.33
2018-01-15T03:34:48.800Z,25.87
2018-01-15T03:37:17.116Z,29.40
2018-01-15T03:39:45.411Z,28.00
2018-01-15T03:42:14.531Z,28.40
2018-01-15T03:44:42.842Z,27.00
2018-01-15T03:47:11.164Z,26.70
2018-01-15T03:49:39.484Z,28.63
2018-01-15T03:52:07.796Z,26.27
2018-01-15T03:54:36.098Z,27.53
2018-01-15T03:57:04.427Z,26.47
2018-01-15T03:59:32.736Z,30.13
2018-01-15T04:02:01.036Z,27.60
2018-01-15T04:04:30.154Z,26.37
2018-01-15T04:06:58.481Z,31.13
2018-01-15T04:09:26.804Z,28.20
2018-01-15T04:11:55.112Z,29.00
2018-01-15T04:14:24.180Z,30.00
2018-01-15T04:16:52.495Z,29.50
2018-01-15T04:19:21.895Z,30.20
2018-01-15T04:21:50.984Z,30.17
2018-01-15T04:24:19.280Z,27.37
2018-01-15T04:26:48.422Z,28.77
2018-01-15T04:29:17.388Z,31.50
2018-01-15T04:31:46.496Z,28.67
2018-01-15T04:34:14.808Z,32.30
2018-01-15T04:36:43.139Z,28.33
2018-01-15T04:39:11.451Z,32.00
2018-01-15T04:41:39.760Z,29.27
2018-01-15T04:44:08.069Z,31.37
2018-01-15T04:46:36.390Z,32.80
2018-01-15T04:49:04.706Z,31.90
2018-01-15T04:51:33.010Z,28.23
2018-01-15T04:54:02.161Z,32.93
2018-01-15T04:56:30.478Z,31.37
2018-01-15T04:58:58.773Z,34.43
2018-01-15T05:01:27.298Z,31.00
2018-01-15T05:03:56.370Z,32.03
2018-01-15T05:06:24.712Z,28.13
2018-01-15T05:08:53.005Z,31.00
2018-01-15T05:11:21.307Z,32.17
2018-01-15T05:13:49.634Z,29.23
2018-01-15T05:16:17.928Z,29.00
2018-01-15T05:18:46.247Z,32.10
2018-01-15T05:21:14.588Z,31.67
2018-01-15T05:23:42.877Z,32.37
2018-01-15T05:26:11.186Z,29.50
2018-01-15T05:28:39.491Z,32.87
2018-01-15T05:31:07.797Z,33.53
2018-01-15T05:33:36.095Z,33.40
2018-01-15T05:36:04.419Z,31.90
2018-01-15T05:38:32.711Z,32.23
2018-01-15T05:41:01.788Z,32.50
2018-01-15T05:43:30.112Z,34.70
2018-01-15T05:45:59.165Z,33.13
2018-01-15T05:48:27.477Z,32.57
2018-01-15T05:50:55.795Z,33.70
2018-01-15T05:53:24.097Z,36.40
2018-01-15T05:55:52.388Z,34.83
2018-01-15T05:58:20.682Z,33.07
2018-01-15T06:00:48.995Z,38.17
2018-01-15T06:03:18.716Z,36.33
2018-01-15T06:05:47.788Z,36.00
2018-01-15T06:08:16.090Z,37.90
2018-01-15T06:10:45.183Z,40.78
2018-01-15T06:13:14.250Z,39.10
2018-01-15T06:15:42.567Z,35.40
2018-01-15T06:18:11.654Z,36.27
2018-01-15T06:20:39.966Z,36.30
2018-01-15T06:23:08.273Z,34.23
2018-01-15T06:25:36.590Z,38.63
2018-01-15T06:28:04.947Z,36.33
2018-01-15T06:30:33.276Z,38.90
2018-01-15T06:33:02.337Z,34.87
2018-01-15T06:35:30.692Z,39.30
2018-01-15T06:37:59.016Z,40.70
2018-01-15T06:40:27.327Z,39.50
2018-01-15T06:42:56.398Z,36.27
2018-01-15T06:45:24.720Z,38.00
2018-01-15T06:47:53.065Z,39.23
2018-01-15T06:50:21.388Z,38.10
2018-01-15T06:52:49.700Z,40.10
2018-01-15T06:55:18.000Z,39.57
2018-01-15T06:57:46.326Z,36.93
2018-01-15T07:00:14.634Z,42.20
2018-01-15T07:02:42.964Z,39.90
2018-01-15T07:05:11.284Z,40.70
2018-01-15T07:07:39.596Z,41.13
2018-01-15T07:10:07.899Z,41.33
2018-01-15T07:12:36.222Z,42.33
2018-01-15T07:15:04.576Z,41.63
2018-01-15T07:17:32.852Z,41.60
2018-01-15T07:20:01.164Z,38.87
2018-01-15T07:22:29.466Z,42.20
2018-01-15T07:24:57.776Z,42.50
2018-01-15T07:27:26.084Z,37.60
2018-01-15T07:29:55.638Z,42.33
2018-01-15T07:32:23.940Z,36.70
2018-01-15T07:34:52.236Z,38.60
2018-01-15T07:37:20.554Z,38.80
2018-01-15T07:39:49.620Z,37.87
2018-01-15T07:42:17.948Z,36.00
2018-01-15T07:44:46.262Z,36.93
2018-01-15T07:47:14.566Z,36.87
2018-01-15T07:49:42.870Z,35.00
2018-01-15T07:52:11.972Z,33.33
2018-01-15T07:54:41.030Z,36.27
2018-01-15T07:57:09.375Z,36.07
2018-01-15T07:59:37.678Z,37.47
2018-01-15T08:02:06.000Z,38.23
2018-01-15T08:04:35.106Z,36.20
2018-01-15T08:07:03.419Z,37.37
2018-01-15T08:09:31.701Z,32.60
2018-01-15T08:11:59.998Z,33.13
2018-01-15T08:14:28.326Z,33.00
2018-01-15T08:16:56.654Z,33.00
2018-01-15T08:19:25.748Z,30.83
2018-01-15T08:21:54.068Z,30.00
2018-01-15T08:24:22.370Z,29.90
2018-01-15T08:26:50.691Z,28.77
2018-01-15T08:29:19.000Z,27.50
2018-01-15T08:31:47.330Z,28.03
2018-01-15T08:34:16.486Z,29.90
2018-01-15T08:36:44.791Z,30.43
2018-01-15T08:39:13.078Z,28.87
2018-01-15T08:41:41.400Z,30.00
2018-01-15T08:44:09.702Z,28.20
2018-01-15T08:46:38.784Z,29.17
2018-01-15T08:49:07.284Z,27.23
2018-01-15T08:51:35.604Z,24.40
2018-01-15T08:54:03.940Z,23.00
2018-01-15T08:56:32.267Z,22.27
2018-01-15T08:59:00.568Z,22.60
2018-01-15T09:01:29.638Z,23.63
2018-01-15T09:03:57.942Z,23.83
2018-01-15T09:06:27.024Z,22.57
2018-01-15T09:08:55.346Z,23.37
2018-01-15T09:11:23.665Z,22.70
2018-01-15T09:13:52.049Z,20.43
2018-01-15T09:16:20.377Z,21.67
2018-01-15T09:18:49.491Z,21.07
2018-01-15T09:21:17.806Z,19.67
2018-01-15T09:23:46.088Z,21.37
2018-01-15T09:26:14.402Z,21.90
2018-01-15T09:28:42.718Z,21.17
2018-01-15T09:31:11.080Z,21.50
2018-01-15T09:33:40.158Z,21.90
2018-01-15T09:36:08.462Z,22.00
2018-01-15T09:38:37.538Z,22.03
2018-01-15T09:41:05.850Z,23.17
2018-01-15T09:43:34.923Z,23.13
2018-01-15T09:46:03.236Z,26.07
2018-01-15T09:48:32.306Z,26.13
2018-01-15T09:51:00.622Z,24.80
2018-01-15T09:53:28.930Z,24.60
2018-01-15T09:55:57.247Z,26.70
2018-01-15T09:58:25.568Z,26.43
2018-01-15T10:00:53.897Z,26.63
2018-01-15T10:03:22.211Z,24.40
2018-01-15T10:05:51.309Z,26.00
2018-01-15T10:08:20.371Z,27.47
2018-01-15T10:10:48.693Z,27.80
2018-01-15T10:13:17.757Z,26.00
2018-01-15T10:15:46.089Z,27.97
2018-01-15T10:18:14.388Z,27.13
2018-01-15T10:20:42.691Z,28.60
2018-01-15T10:23:11.004Z,27.13
2018-01-15T10:25:39.323Z,27.30
2018-01-15T10:28:07.695Z,26.50
2018-01-15T10:30:36.063Z,28.73
2018-01-15T10:33:05.137Z,26.50
2018-01-15T10:35:33.452Z,27.07
2018-01-15T10:38:02.543Z,27.00
2018-01-15T10:40:31.617Z,25.53
2018-01-15T10:42:59.924Z,25.63
2018-01-15T10:45:29.011Z,25.40
2018-01-15T10:47:57.329Z,23.43
2018-01-15T10:50:25.635Z,23.53
2018-01-15T10:52:53.939Z,26.03
2018-01-15T10:55:22.256Z,24.47
2018-01-15T10:57:50.706Z,23.57
2018-01-15T11:00:19.041Z,23.80
2018-01-15T11:02:47.395Z,22.80
2018-01-15T11:05:15.689Z,24.57
2018-01-15T11:07:44.752Z,23.80
2018-01-15T11:10:13.078Z,21.50
2018-01-15T11:12:41.387Z,22.10
2018-01-15T11:15:09.739Z,21.40
2018-01-15T11:17:38.048Z,22.50
2018-01-15T11:20:06.367Z,22.73
2018-01-15T11:22:34.697Z,23.13
2018-01-15T11:25:03.014Z,24.53
2018-01-15T11:27:31.350Z,22.93
2018-01-15T11:29:59.644Z,22.57
2018-01-15T11:32:27.944Z,23.17
2018-01-15T11:34:56.247Z,24.37
2018-01-15T11:37:24.542Z,23.80
2018-01-15T11:39:52.964Z,23.70
2018-01-15T11:42:21.282Z,26.47
2018-01-15T11:44:49.604Z,24.10
2018-01-15T11:47:18.680Z,22.57
2018-01-15T11:49:46.964Z,22.37
2018-01-15T11:52:15.270Z,21.13
2018-01-15T11:54:44.335Z,24.10
2018-01-15T11:57:12.651Z,21.43
2018-01-15T11:59:41.730Z,23.47
2018-01-15T12:02:10.128Z,23.50
2018-01-15T12:04:39.237Z,23.63
2018-01-15T12:07:08.405Z,21.37
2018-01-15T12:09:36.790Z,20.13
2018-01-15T12:12:05.113Z,19.17
2018-01-15T12:14:33.431Z,20.53
2018-01-15T12:17:01.757Z,20.10
2018-01-15T12:19:30.863Z,16.73
2018-01-15T12:21:59.184Z,20.47
2018-01-15T12:24:27.486Z,21.17
2018-01-15T12:26:55.788Z,20.70
2018-01-15T12:29:24.101Z,18.80
2018-01-15T12:31:52.418Z,17.60
2018-01-15T12:34:20.718Z,20.40
2018-01-15T12:36:49.038Z,17.47
2018-01-15T12:39:17.355Z,18.33
2018-01-15T12:41:45.636Z,19.20
2018-01-15T12:44:14.015Z,19.37
2018-01-15T12:46:42.985Z,16.40
2018-01-15T12:49:11.312Z,17.70
2018-01-15T12:51:39.621Z,19.40
2018-01-15T12:54:07.924Z,17.80
2018-01-15T12:56:37.000Z,15.87
2018-01-15T12:59:05.301Z,15.13
2018-01-15T13:01:34.621Z,14.93
2018-01-15T13:04:02.926Z,16.03
2018-01-15T13:06:49.033Z,14.80
2018-01-15T13:09:17.357Z,16.33
2018-01-15T13:11:46.427Z,16.57
2018-01-15T13:14:15.100Z,18.43
2018-01-15T13:16:43.440Z,19.10
2018-01-15T13:19:11.763Z,14.80
2018-01-15T13:21:40.087Z,17.10
2018-01-15T13:24:09.726Z,17.23
2018-01-15T13:26:38.033Z,15.70
2018-01-15T13:29:06.325Z,16.40
2018-01-15T13:31:34.647Z,16.40
2018-01-15T13:34:03.705Z,16.57
2018-01-15T13:36:32.014Z,16.00
2018-01-15T13:39:01.149Z,16.07
2018-01-15T13:41:29.460Z,16.90
2018-01-15T13:43:57.745Z,15.77
2018-01-15T13:46:26.035Z,14.80
2018-01-15T13:48:54.330Z,17.17
2018-01-15T13:51:22.639Z,17.33
2018-01-15T13:53:51.778Z,17.27
2018-01-15T13:56:20.064Z,17.57
2018-01-15T13:58:48.373Z,18.87
2018-01-15T14:01:16.671Z,16.60
2018-01-15T14:03:45.773Z,17.83
2018-01-15T14:06:14.859Z,16.57
2018-01-15T14:08:43.179Z,16.63
2018-01-15T14:11:11.486Z,17.27
2018-01-15T14:13:39.883Z,18.40
2018-01-15T14:16:08.193Z,16.97
2018-01-15T14:18:37.281Z,15.77
2018-01-15T14:21:05.581Z,15.77
2018-01-15T14:23:34.660Z,18.03
2018-01-15T14:26:02.971Z,16.27
2018-01-15T14:28:31.297Z,16.53
2018-01-15T14:30:59.592Z,14.10
2018-01-15T14:33:27.924Z,15.20
2018-01-15T14:35:56.233Z,14.73
2018-01-15T14:38:24.533Z,18.13
2018-01-15T14:40:52.850Z,15.67
2018-01-15T14:43:21.942Z,17.20
2018-01-15T14:45:50.313Z,15.67
2018-01-15T14:48:18.609Z,15.17
2018-01-15T14:50:47.693Z,16.27
2018-01-15T14:53:16.029Z,18.00
2018-01-15T14:55:44.365Z,15.77
2018-01-15T14:58:14.284Z,17.40
2018-01-15T15:00:42.635Z,14.17
2018-01-15T15:03:10.930Z,13.80
2018-01-15T15:05:39.345Z,13.03
2018-01-15T15:08:08.432Z,16.93
2018-01-15T15:10:36.807Z,13.50
2018-01-15T15:13:05.175Z,16.10
2018-01-15T15:15:33.468Z,14.60
2018-01-15T15:18:01.796Z,13.77
2018-01-15T15:20:30.116Z,15.77
2018-01-15T15:22:58.470Z,16.30
2018-01-15T15:25:26.781Z,13.53
2018-01-15T15:27:55.078Z,16.13
2018-01-15T15:30:23.382Z,15.30
2018-01-15T15:32:52.511Z,16.43
2018-01-15T15:35:20.805Z,15.70
2018-01-15T15:37:49.163Z,14.97
2018-01-15T15:40:17.468Z,15.00
2018-01-15T15:42:45.764Z,16.80
2018-01-15T15:45:14.048Z,14.50
2018-01-15T15:47:42.357Z,15.13
2018-01-15T15:50:10.689Z,16.60
2018-01-15T15:52:39.084Z,14.70
2018-01-15T15:55:07.413Z,12.20
2018-01-15T15:57:35.700Z,15.07
2018-01-15T16:00:04.808Z,12.20
2018-01-15T16:02:33.117Z,10.97
2018-01-15T16:05:01.431Z,13.07
2018-01-15T16:07:29.743Z,11.30
2018-01-15T16:09:58.819Z,9.60
2018-01-15T16:12:27.137Z,10.50
2018-01-15T16:14:55.442Z,9.73
2018-01-15T16:17:23.771Z,8.80
2018-01-15T16:19:52.231Z,8.70
2018-01-15T16:22:33.067Z,9.17
2018-01-15T16:25:02.985Z,7.77
2018-01-15T16:27:31.293Z,9.23
2018-01-15T16:29:59.601Z,8.53
2018-01-15T16:32:27.904Z,8.80
2018-01-15T16:34:56.984Z,8.53
2018-01-15T16:37:25.287Z,7.73
2018-01-15T16:39:54.422Z,8.00
2018-01-15T16:42:22.736Z,7.70
2018-01-15T16:44:51.104Z,6.40
2018-01-15T16:47:19.378Z,6.63
2018-01-15T16:49:47.677Z,6.77
2018-01-15T16:52:16.028Z,6.90
2018-01-15T16:54:44.332Z,7.23
2018-01-15T16:57:12.634Z,7.37
2018-01-15T16:59:41.018Z,7.23
2018-01-15T17:02:09.291Z,6.63
2018-01-15T17:04:37.610Z,7.43
2018-01-15T17:07:06.686Z,8.10
2018-01-15T17:09:34.998Z,8.57
2018-01-15T17:12:03.313Z,7.67
2018-01-15T17:14:32.098Z,7.40
2018-01-15T17:17:01.130Z,7.33
2018-01-15T17:19:29.455Z,8.63
2018-01-15T17:21:57.753Z,7.90
2018-01-15T17:24:26.058Z,9.17
2018-01-15T17:26:54.383Z,9.60
2018-01-15T17:29:23.462Z,9.80
2018-01-15T17:31:51.760Z,9.60
2018-01-15T17:34:20.832Z,10.40
2018-01-15T17:36:49.116Z,11.40
2018-01-15T17:39:17.403Z,9.83
2018-01-15T17:41:45.742Z,12.13
2018-01-15T17:44:14.144Z,15.17
2018-01-15T17:46:42.476Z,15.50
2018-01-15T17:49:11.554Z,12.23
2018-01-15T17:51:41.261Z,14.77
2018-01-15T17:54:09.657Z,13.57
2018-01-15T17:56:37.973Z,15.20
2018-01-15T17:59:06.283Z,16.07
2018-01-15T18:01:34.622Z,15.87
2018-01-15T18:04:03.752Z,16.00
2018-01-15T18:06:32.066Z,18.37
2018-01-15T18:09:00.379Z,14.07
2018-01-15T18:11:29.451Z,19.23
2018-01-15T18:13:57.771Z,17.33
2018-01-15T18:16:26.070Z,18.50
2018-01-15T18:18:54.829Z,18.93
2018-01-15T18:21:24.713Z,20.57
2018-01-15T18:23:53.029Z,16.70
2018-01-15T18:26:22.126Z,18.40
2018-01-15T18:28:51.212Z,18.30
2018-01-15T18:31:19.529Z,18.03
2018-01-15T18:33:47.830Z,21.37
2018-01-15T18:36:16.151Z,19.23
2018-01-15T18:38:44.510Z,22.40
2018-01-15T18:41:13.600Z,22.47
2018-01-15T18:43:41.920Z,27.00
2018-01-15T18:46:11.918Z,25.30
2018-01-15T18:48:40.265Z,26.50
2018-01-15T18:51:08.856Z,24.00
2018-01-15T18:53:37.165Z,21.87
2018-01-15T18:56:05.468Z,23.67
2018-01-15T18:58:34.536Z,22.70
2018-01-15T19:01:02.861Z,19.17
2018-01-15T19:03:32.035Z,16.27
2018-01-15T19:06:00.351Z,12.60
2018-01-15T19:08:29.396Z,9.70
2018-01-15T19:10:57.723Z,9.13
2018-01-15T19:13:26.865Z,8.40
2018-01-15T19:15:55.425Z,5.97
2018-01-15T19:18:24.481Z,5.07
2018-01-15T19:20:53.168Z,3.60
2018-01-15T19:23:21.492Z,4.47
2018-01-15T19:25:50.555Z,4.13
2018-01-15T19:28:19.423Z,4.03
2018-01-15T19:30:47.871Z,4.40
2018-01-15T19:33:16.933Z,3.30
2018-01-15T19:35:45.660Z,3.10
2018-01-15T19:38:25.469Z,4.20
2018-01-15T19:40:54.765Z,3.53
2018-01-15T19:43:28.523Z,3.97
2018-01-15T19:46:02.413Z,3.07
2018-01-15T19:48:40.712Z,2.70
2018-01-15T19:51:14.718Z,4.13
2018-01-15T19:53:48.656Z,4.03
2018-01-15T19:59:24.907Z,5.20
2018-01-15T20:01:58.821Z,5.53
2018-01-15T20:04:34.194Z,3.70
2018-01-15T20:07:07.928Z,4.33
2018-01-15T20:09:41.678Z,3.63
2018-01-15T20:12:10.765Z,3.77
2018-01-15T20:14:39.125Z,5.50
2018-01-15T20:17:07.427Z,3.60
2018-01-15T20:19:35.725Z,3.97
2018-01-15T20:22:04.809Z,4.53
2018-01-15T20:24:33.188Z,5.00
2018-01-15T20:27:01.534Z,3.40
2018-01-15T20:29:30.066Z,3.30
2018-01-15T20:31:58.485Z,2.90
2018-01-15T20:34:26.796Z,3.63
2018-01-15T20:36:55.256Z,3.83
2018-01-15T20:39:23.576Z,4.10
2018-01-15T20:41:51.874Z,3.80
2018-01-15T20:44:20.152Z,4.37
2018-01-15T20:46:48.469Z,4.37
2018-01-15T20:49:16.800Z,3.97
2018-01-15T20:51:45.695Z,3.77
2018-01-15T20:54:14.007Z,3.87
2018-01-15T20:56:43.077Z,4.63
2018-01-15T20:59:11.410Z,3.30
2018-01-15T21:01:39.716Z,3.47
2018-01-15T21:04:08.026Z,2.97
2018-01-15T21:06:36.323Z,3.10
2018-01-15T21:09:04.630Z,3.20
2018-01-15T21:11:32.946Z,3.90
2018-01-15T21:14:01.240Z,3.50
2018-01-15T21:16:29.610Z,3.30
2018-01-15T21:18:58.621Z,3.30
2018-01-15T21:21:26.932Z,3.67
2018-01-15T21:23:56.589Z,3.00
2018-01-15T21:26:24.929Z,3.00
2018-01-15T21:28:54.015Z,2.63
2018-01-15T21:31:22.341Z,2.70
2018-01-15T21:33:50.693Z,3.00
2018-01-15T21:36:19.747Z,3.03
2018-01-15T21:38:48.063Z,3.40
2018-01-15T21:41:16.381Z,2.70
2018-01-15T21:43:44.661Z,2.77
2018-01-15T21:46:12.989Z,3.53
2018-01-15T21:48:41.329Z,3.10
2018-01-15T21:51:09.619Z,3.70
2018-01-15T21:53:37.911Z,2.90
2018-01-15T21:56:06.214Z,2.60
2018-01-15T21:58:34.525Z,2.87
2018-01-15T22:01:03.606Z,3.50
2018-01-15T22:03:31.926Z,2.70
2018-01-15T22:06:00.210Z,3.13
2018-01-15T22:08:28.513Z,2.77
2018-01-15T22:10:56.795Z,2.23
2018-01-15T22:13:25.087Z,2.40
2018-01-15T22:15:53.409Z,2.53
2018-01-15T22:18:22.513Z,2.60
2018-01-15T22:20:51.587Z,2.70
2018-01-15T22:23:19.883Z,2.40
2018-01-15T22:25:48.180Z,2.90
2018-01-15T22:28:17.239Z,2.50
2018-01-15T22:30:45.541Z,2.80
2018-01-15T22:33:13.840Z,2.23
2018-01-15T22:35:42.914Z,2.10
2018-01-15T22:38:11.259Z,2.27
2018-01-15T22:40:39.566Z,1.97
2018-01-15T22:43:08.645Z,2.60
2018-01-15T22:45:36.972Z,2.33
2018-01-15T22:48:05.274Z,2.50
2018-01-15T22:50:33.581Z,2.30
2018-01-15T22:53:01.867Z,2.53
2018-01-15T22:55:30.175Z,3.17
2018-01-15T22:57:59.247Z,2.90
2018-01-15T23:00:27.539Z,3.23
2018-01-15T23:02:55.830Z,3.40
2018-01-15T23:05:24.155Z,2.50
2018-01-15T23:07:53.214Z,3.30
2018-01-15T23:10:21.524Z,3.10
2018-01-15T23:12:50.597Z,3.13
2018-01-15T23:15:18.903Z,3.13
2018-01-15T23:17:47.201Z,3.53
2018-01-15T23:20:15.512Z,3.57
2018-01-15T23:22:43.805Z,3.30
2018-01-15T23:25:12.108Z,3.43
2018-01-15T23:27:40.396Z,3.10
2018-01-15T23:30:08.748Z,3.80
2018-01-15T23:32:37.042Z,3.30
2018-01-15T23:35:05.361Z,3.20
2018-01-15T23:37:34.460Z,2.70
2018-01-15T23:40:03.519Z,2.40
2018-01-15T23:42:31.855Z,3.10
2018-01-15T23:45:00.148Z,2.63
2018-01-15T23:47:28.483Z,3.60
2018-01-15T23:49:56.781Z,3.00
2018-01-15T23:52:25.864Z,3.13
2018-01-15T23:54:54.180Z,3.03
2018-01-15T23:57:22.518Z,2.70
2018-01-15T23:59:50.817Z,2.83
